Hovedside
METAR-TAF:

METAR-TAF

Lufthavner :

Salem Municipal Airport (McNary Field)

Salem, Oregon, USA

breddegrad: 44-54-28N, lengdegrad: 122-59-42W, høyde over havet: 64 m

Gjeldene værobservasjon

Denne rapporten ble laget for 18 minutter siden, klokken 17:56 UTC
Vind 6 kt fra Nord-nordøst
Temperatur 16°C
Luftfuktighet 45%
Trykk 1018 hPa
Sikt: 16.1 km
Skyfri himmel

METAR: KSLE 091756Z 02006KT 10SM CLR 16/04 A3007 RMK AO2 SLP183 T01560044 10156 20033 56007

Tid: 11:14 (18:14 UTC)

Varsel

Denne rapporten ble laget for 54 minutter siden, klokken 17:20 UTC
Varsel gyldig fra 09. klokken 18 UTC til 10. klokken 18 UTC
Vind 4 kt fra Nord
Sikt: 10 km
Skyfri himmel
Fra 10. klokken 1500 UTC
Vind 2 kt fra Nord-nordvest
Sikt: 10 km
Brutte skyer i en høyde av 2500 ft

TAF: KSLE 091720Z 0918/1018 36004KT P6SM SKC FM101500 34002KT P6SM BKN025

Værobservasjoner og værvarsel for over 4000 flyplasser (METAR- og TAF-rapporter).

Tilgjengelige stasjoner er representert av de røde og gule prikkene på kartet.

Hold musepekeren over prikken for å se navnet på stasjonen.

Klikk så for å se værobservasjoner og -varsler.

For å forandre kartet kan du klikke på den grønne knappen med svart kryss for å zoome inn, på den grønne knappen med strek for å zoome ut, eller på de grønne pilene for å se tilstøtende kart.


METAR-TAF: